Latest Weather Observations for Yamba

IDN60801

Issued at 3:35 pm EST Friday 19 September 2014 (issued every 30 minutes, with the page automatically refreshed every 10 minutes)

About weather observations | Map of weather stations | Latest weather observations for NSW | Other Formats
Station Details ID: 058012 Name: YAMBA PILOT STATION Lat: -29.43 Lon: 153.36 Height: 27.4 m
Data from the previous 72 hours. | See also: Recent months at Yamba
Date/Time
EST
Temp
°C
App
Temp
°C
Dew
Point
Rel
Hum
%
Delta-T
°C
Wind Press
QNH
hPa
Press
MSL
hPa
Rain
since 9 am
mm
Dir
 
Spd
km/h
Gust
km/h
Spd
kts
Gust
kts
19/03:30pm 20.3 19.3 14.7 70 3.3 E 13 20 7 11 1017.3 - 0.0
19/03:00pm 20.6 19.9 15.4 72 3.1 E 13 19 7 10 1017.4 1017.3 0.0
19/02:30pm 20.1 19.3 15.1 73 2.9 E 13 20 7 11 1017.4 - 0.0
19/02:00pm 20.7 20.4 15.5 72 3.1 E 11 17 6 9 1017.8 - 0.0
19/01:30pm 20.8 20.6 15.6 72 3.1 E 11 17 6 9 1018.4 - 0.0
19/01:00pm 20.9 20.8 15.9 73 3.0 E 11 17 6 9 1018.9 - 0.0
19/12:30pm 20.7 20.2 15.9 74 2.9 E 13 19 7 10 1019.6 - 0.0
19/12:00pm 20.3 19.7 15.7 75 2.7 ESE 13 19 7 10 1020.0 1020.0 0.0
19/11:30am 20.5 20.2 16.5 78 2.4 ESE 13 19 7 10 1020.3 - 0.0
19/11:00am 20.2 19.6 16.6 80 2.2 SE 15 19 8 10 1020.8 - 0.0
19/10:30am 20.1 19.3 16.1 78 2.4 SE 15 20 8 11 1021.1 - 0.0
19/10:00am 19.5 18.7 15.2 76 2.5 SE 13 17 7 9 1021.4 - 0.0
19/09:30am 18.7 18.8 14.0 74 2.7 SSW 6 11 3 6 1021.7 - 0.0
19/09:00am 17.8 17.1 13.3 75 2.5 WSW 9 13 5 7 1022.0 1022.1 0.0
19/08:30am 16.3 14.9 12.1 76 2.3 W 11 15 6 8 1022.0 - 0.0
19/08:00am 15.0 13.9 12.1 83 1.6 WSW 9 15 5 8 1021.9 - 0.0
19/07:30am 13.0 10.7 10.5 85 1.3 WSW 13 17 7 9 1021.6 - 0.0
19/07:00am 11.5 9.0 9.8 89 0.9 WSW 13 19 7 10 1021.4 - 0.0
19/06:30am 10.4 7.4 9.3 93 0.5 WSW 15 20 8 11 1021.1 - 0.0
19/06:00am 10.1 7.5 9.5 96 0.3 WSW 13 19 7 10 1020.8 1020.8 0.0
19/05:30am 10.1 7.5 9.3 95 0.4 WSW 13 17 7 9 1020.5 - 0.0
19/05:00am 10.2 7.2 9.4 95 0.4 WSW 15 17 8 9 1020.3 - 0.0
19/04:30am 10.2 7.2 9.4 95 0.4 WSW 15 17 8 9 1020.0 - 0.0
19/04:00am 10.4 7.8 9.5 94 0.5 WSW 13 17 7 9 1020.0 - 0.0
19/03:30am 10.8 8.7 9.9 94 0.5 WSW 11 15 6 8 1019.6 - 0.0
19/03:00am 11.3 9.4 10.5 95 0.4 WSW 11 13 6 7 1019.6 1019.6 0.0
19/02:30am 11.8 9.5 10.5 92 0.7 SW 13 17 7 9 1019.7 - 0.0
19/02:00am 11.9 9.6 10.6 92 0.7 SW 13 17 7 9 1020.0 - 0.0
19/01:30am 12.2 10.3 10.6 90 0.8 SW 11 15 6 8 1020.3 - 0.0
19/01:00am 12.3 10.4 10.5 89 0.9 SW 11 15 6 8 1020.3 - 0.0
19/12:30am 12.3 10.3 10.2 87 1.1 WSW 11 15 6 8 1020.4 - 0.0
19/12:00am 12.8 11.6 11.7 93 0.6 WSW 9 13 5 7 1020.7 1020.7 0.0
 
Date/Time
EST
Temp
°C
App
Temp
°C
Dew
Point
Rel
Hum
%
Delta-T
°C
Wind Press
QNH
hPa
Press
MSL
hPa
Rain
since 9 am
mm
Dir
 
Spd
km/h
Gust
km/h
Spd
kts
Gust
kts
18/11:30pm 13.7 12.3 12.1 90 0.9 SW 11 13 6 7 1020.6 - 0.0
18/11:00pm 14.6 13.7 12.5 87 1.1 SSW 9 11 5 6 1020.6 - 0.0
18/10:30pm 15.4 14.6 11.6 78 2.0 S 7 11 4 6 1020.5 - 0.0
18/10:00pm 15.8 14.6 11.6 76 2.3 S 9 11 5 6 1020.6 - 0.0
18/09:30pm 17.3 15.3 11.6 69 3.1 SE 13 19 7 10 1020.6 - 0.0
18/09:00pm 17.5 15.3 12.0 70 3.0 SE 15 20 8 11 1020.3 1020.3 0.0
18/08:30pm 17.7 15.4 11.7 68 3.3 SE 15 19 8 10 1020.0 - 0.0
18/08:00pm 17.9 16.1 12.1 69 3.2 ESE 13 20 7 11 1019.4 - 0.0
18/07:30pm 18.0 15.3 11.8 67 3.4 ESE 17 22 9 12 1018.9 - 0.0
18/07:00pm 18.2 16.0 12.2 68 3.3 ESE 15 22 8 12 1018.3 - 0.0
18/06:30pm 18.1 15.5 11.9 67 3.4 ESE 17 22 9 12 1017.7 - 0.0
18/06:00pm 18.3 15.1 11.1 63 3.9 E 19 26 10 14 1017.4 1017.3 0.0
18/05:30pm 18.4 14.9 10.3 59 4.3 E 19 26 10 14 1016.9 - 0.0
18/05:00pm 18.6 16.4 10.9 61 4.2 E 13 22 7 12 1016.7 - 0.0
18/04:30pm 19.0 17.0 11.6 62 4.1 E 13 22 7 12 1016.2 - 0.0
18/04:00pm 19.1 16.3 11.2 60 4.3 E 17 24 9 13 1015.9 - 0.0
18/03:30pm 19.5 16.3 11.3 59 4.5 ESE 19 26 10 14 1015.7 - 0.0
18/03:00pm 19.5 16.0 10.8 57 4.7 ESE 20 30 11 16 1015.6 1015.5 0.0
18/02:30pm 19.4 15.2 9.9 54 5.1 ESE 22 30 12 16 1015.8 - 0.0
18/02:00pm 19.6 16.2 10.6 56 4.9 E 19 26 10 14 1016.1 - 0.0
18/01:30pm 19.9 16.5 10.6 55 5.0 E 19 26 10 14 1016.2 - 0.0
18/01:00pm 20.1 16.7 10.5 54 5.2 ESE 19 24 10 13 1016.6 - 0.0
18/12:30pm 20.2 17.7 9.7 51 5.6 E 13 20 7 11 1017.0 - 0.0
18/12:00pm 21.7 19.4 8.9 44 6.8 SSW 11 17 6 9 1017.4 1017.3 0.0
18/11:30am 20.7 17.2 7.3 42 6.9 SSW 15 20 8 11 1017.9 - 0.0
18/11:00am 20.4 16.9 7.1 42 6.8 S 15 22 8 12 1018.3 - 0.0
18/10:30am 20.8 17.8 7.8 43 6.7 WSW 13 22 7 12 1018.6 - 0.0
18/10:00am 20.2 17.0 8.5 47 6.1 WSW 15 26 8 14 1018.6 - 0.0
18/09:30am 20.0 17.2 8.7 48 5.9 WSW 13 22 7 12 1018.7 - 0.0
18/09:00am 19.6 17.0 9.5 52 5.4 SW 13 26 7 14 1018.9 1018.9 0.0
18/08:30am 18.5 17.1 9.6 56 4.7 SW 7 15 4 8 1019.0 - 0.0
18/08:00am 17.0 15.5 10.6 66 3.4 WSW 9 15 5 8 1019.0 - 0.0
18/07:30am 15.2 13.4 9.6 69 2.9 SW 9 15 5 8 1018.9 - 0.0
18/07:00am 13.8 12.3 9.3 74 2.3 SW 7 15 4 8 1018.6 - 0.0
18/06:30am 12.8 11.1 8.5 75 2.1 WSW 7 13 4 7 1018.0 - 0.0
18/06:00am 12.1 10.4 8.4 78 1.8 SW 7 13 4 7 1017.7 1017.6 0.0
18/05:30am 11.7 10.1 8.7 82 1.5 SW 7 13 4 7 1017.2 - 0.0
18/05:00am 12.4 10.8 8.9 79 1.8 SW 7 13 4 7 1016.8 - 0.0
18/04:30am 12.9 11.4 9.2 78 1.9 SW 7 11 4 6 1016.3 - 0.0
18/04:00am 13.0 11.3 10.0 82 1.5 WSW 9 15 5 8 1016.0 - 0.0
18/03:30am 13.4 12.0 10.8 84 1.4 W 9 15 5 8 1015.8 - 0.0
18/03:00am 13.8 12.6 11.7 87 1.1 W 9 13 5 7 1015.7 1015.6 0.0
18/02:30am 14.5 13.4 12.0 85 1.4 W 9 17 5 9 1015.7 - 0.0
18/02:00am 14.5 13.3 11.6 83 1.6 WSW 9 15 5 8 1015.5 - 0.0
18/01:30am 14.5 13.3 12.9 90 0.9 W 11 15 6 8 1015.7 - 0.0
18/01:00am 14.9 14.7 13.6 92 0.7 WSW 7 13 4 7 1015.6 - 0.0
18/12:30am 15.7 15.3 14.1 90 0.9 SW 9 15 5 8 1015.5 - 0.0
18/12:00am 15.9 15.6 14.3 90 0.9 SSW 9 13 5 7 1015.3 1015.2 0.0
 
Date/Time
EST
Temp
°C
App
Temp
°C
Dew
Point
Rel
Hum
%
Delta-T
°C
Wind Press
QNH
hPa
Press
MSL
hPa
Rain
since 9 am
mm
Dir
 
Spd
km/h
Gust
km/h
Spd
kts
Gust
kts
17/11:30pm 15.8 15.6 13.6 87 1.2 SW 7 13 4 7 1015.6 - 0.0
17/11:00pm 16.3 16.2 13.8 85 1.4 WSW 7 13 4 7 1015.4 - 0.0
17/10:30pm 17.1 16.0 13.2 78 2.2 WSW 11 19 6 10 1015.2 - 0.0
17/10:00pm 17.6 16.3 11.2 66 3.5 WSW 9 17 5 9 1014.9 - 0.0
17/09:30pm 17.4 16.2 11.7 69 3.1 WSW 9 13 5 7 1014.4 - 0.0
17/09:00pm 17.5 16.6 12.6 73 2.7 WSW 9 13 5 7 1014.0 1014.0 0.0
17/08:30pm 18.0 18.0 15.1 83 1.7 W 9 15 5 8 1013.6 - 0.0
17/08:00pm 18.4 19.1 17.1 92 0.8 WNW 9 13 5 7 1013.4 - 0.0
17/07:30pm 18.5 18.9 16.3 87 1.3 N 9 15 5 8 1012.8 - 0.0
17/07:00pm 19.6 20.4 17.2 86 1.5 N 9 13 5 7 1012.3 - 0.0
17/06:30pm 19.5 20.0 16.5 83 1.8 N 9 17 5 9 1011.9 - 0.0
17/06:00pm 19.7 19.8 16.5 82 1.9 N 11 20 6 11 1011.6 1011.5 0.0
17/05:30pm 19.9 20.5 16.7 82 1.9 N 9 17 5 9 1011.4 - 0.0
17/05:00pm 20.9 20.9 17.1 79 2.3 N 13 20 7 11 1011.1 - 0.0
17/04:30pm 20.6 19.7 15.8 74 2.9 ENE 15 20 8 11 1010.6 - 0.0
17/04:00pm 21.2 20.5 15.3 69 3.5 E 13 20 7 11 1010.2 - 0.0
17/03:30pm 21.4 20.7 15.3 68 3.6 ENE 13 20 7 11 1010.2 - 0.0
17/03:00pm 22.0 21.8 15.8 68 3.7 ENE 11 20 6 11 1010.1 1010.2 0.0
17/02:30pm 22.5 22.2 15.4 64 4.2 NE 11 20 6 11 1010.2 - 0.0
17/02:00pm 22.8 22.9 15.6 64 4.3 NE 9 17 5 9 1010.4 - 0.0
17/01:30pm 22.9 22.2 15.5 63 4.4 ENE 13 20 7 11 1010.7 - 0.0
17/01:00pm 26.1 24.0 13.6 46 7.4 NW 17 26 9 14 1011.1 - 0.0
17/12:30pm 25.7 24.9 13.9 48 7.0 NW 11 20 6 11 1011.4 - 0.0
17/12:00pm 25.3 24.3 14.7 51 6.3 NW 13 22 7 12 1012.0 1012.0 0.0
17/11:30am 24.8 24.3 14.9 54 5.9 WNW 11 20 6 11 1012.7 - 0.0
17/11:00am 23.5 22.3 13.9 55 5.6 W 13 22 7 12 1013.5 - 0.0
17/10:30am 22.7 21.1 11.4 49 6.3 W 11 19 6 10 1013.9 - 0.0
17/10:00am 22.9 21.7 12.8 53 5.8 NW 11 17 6 9 1014.2 - 0.0
17/09:30am 22.0 20.2 12.0 53 5.6 W 13 19 7 10 1014.5 - 0.0
17/09:00am 21.2 20.9 14.4 65 4.0 W 9 13 5 7 1014.8 1014.6 0.0
17/08:30am 19.4 18.8 14.6 74 2.8 W 11 13 6 7 1014.7 - 0.0
17/08:00am 17.8 17.3 13.9 78 2.2 W 9 13 5 7 1014.7 - 0.0
17/07:30am 16.0 15.5 13.7 86 1.3 W 9 13 5 7 1014.5 - 0.0
17/07:00am 15.3 14.8 14.8 97 0.3 WNW 11 15 6 8 1014.1 - 0.0
17/06:30am 16.1 15.6 13.9 87 1.2 SW 9 13 5 7 1013.5 - 0.0
17/06:00am 16.8 16.1 13.1 79 2.1 SSW 9 13 5 7 1013.2 1013.2 0.0
17/05:30am 14.9 13.5 9.5 70 2.8 SW 7 11 4 6 1012.8 - 0.0
17/05:00am 15.1 14.1 12.4 84 1.5 SW 9 11 5 6 1012.4 - 0.0
17/04:30am 15.3 14.5 12.8 85 1.4 W 9 11 5 6 1012.2 - 0.0
17/04:00am 15.4 14.7 13.2 87 1.2 W 9 11 5 6 1011.8 - 0.0
17/03:30am 15.1 14.9 14.6 97 0.3 W 9 11 5 6 1011.5 - 0.0
17/03:00am 15.8 16.3 15.6 99 0.1 WNW 7 9 4 5 1011.2 1011.2 0.0
17/02:30am 16.0 15.9 14.0 88 1.1 WNW 7 9 4 5 1011.1 - 0.0
17/02:00am 16.7 17.0 15.1 90 0.9 W 7 11 4 6 1011.3 - 0.0
17/01:30am 16.8 17.2 16.3 97 0.3 WNW 9 13 5 7 1011.4 - 0.0
17/01:00am 16.7 17.1 16.2 97 0.3 NW 9 11 5 6 1011.4 - 0.0
17/12:30am 16.9 17.4 16.6 98 0.2 NW 9 13 5 7 1011.3 - 0.0
17/12:00am 17.1 17.4 16.0 93 0.6 WNW 9 11 5 6 1011.3 1011.3 0.0
 
Date/Time
EST
Temp
°C
App
Temp
°C
Dew
Point
Rel
Hum
%
Delta-T
°C
Wind Press
QNH
hPa
Press
MSL
hPa
Rain
since 9 am
mm
Dir
 
Spd
km/h
Gust
km/h
Spd
kts
Gust
kts
16/11:30pm 17.4 17.8 16.4 94 0.6 NNW 9 11 5 6 1011.3 - 0.0
16/11:00pm 18.0 18.7 17.0 94 0.6 NW 9 13 5 7 1011.1 - 0.0
16/10:30pm 18.3 19.4 17.1 93 0.7 NW 7 13 4 7 1011.1 - 0.0
16/10:00pm 19.1 19.7 17.6 91 0.9 NW 11 17 6 9 1010.8 - 0.0
16/09:30pm 19.3 19.9 17.6 90 1.0 WNW 11 19 6 10 1010.6 - 0.0
16/09:00pm 19.9 20.2 17.9 88 1.2 NNW 13 20 7 11 1010.4 1010.4 0.0
16/08:30pm 20.3 20.9 18.6 90 1.1 NNW 13 22 7 12 1010.2 - 0.0
16/08:00pm 20.3 20.4 18.4 89 1.2 NW 15 20 8 11 1010.1 - 0.0
16/07:30pm 20.8 21.1 18.7 88 1.3 NNW 15 24 8 13 1009.6 - 0.0
16/07:00pm 20.5 21.1 19.5 94 0.6 NNW 15 24 8 13 1009.1 - 0.0
16/06:30pm 20.8 21.9 20.5 98 0.2 N 15 24 8 13 1008.7 - 0.0
16/06:00pm 20.6 21.7 20.4 99 0.1 N 15 26 8 14 1008.2 1008.2 0.0
16/05:30pm 20.7 21.8 20.5 99 0.1 N 15 22 8 12 1008.1 - 0.0
16/05:00pm 21.4 23.6 21.1 98 0.2 N 11 22 6 12 1008.1 - 0.0
16/04:00pm 21.4 23.2 21.1 98 0.2 N 13 24 7 13 1008.1 - 0.0

Other Formats:

Comma delimited format used in spreadsheet applications
http://www.bom.gov.au/fwo/IDN60801/IDN60801.94589.axf

JavaScript Object Notation format (JSON) in row-major order
http://www.bom.gov.au/fwo/IDN60801/IDN60801.94589.json